This is the latest recevied weather packets stored in our database for station/object KN6CRX. If no packets are shown the sender has not sent any weather packets the latest 10 day(s).
| Time | Temp. | Humidity | Pressure | Rain* | Wind** | Luminosity | Snow |
|---|---|---|---|---|---|---|---|
| 1787854478 | 27.78° C | 37% | 1022.5 hPa | 0 mm | - | 381 W/m² | - |
| 1787854173 | 27.78° C | 36% | 1022.6 hPa | 0 mm | - | 536 W/m² | - |
| 1787853868 | 27.78° C | 35% | 1022.6 hPa | 0 mm | - | 436 W/m² | - |
| 1787853567 | 27.78° C | 36% | 1022.8 hPa | 0 mm | - | 407 W/m² | - |
| 1787853262 | 27.22° C | 36% | 1022.9 hPa | 0 mm | - | 772 W/m² | - |
| 1787852961 | 26.67° C | 39% | 1022.9 hPa | 0 mm | - | 871 W/m² | - |
| 1787852656 | 27.22° C | 39% | 1022.9 hPa | 0 mm | - | 340 W/m² | - |
| 1787852355 | 26.67° C | 38% | 1022.9 hPa | 0 mm | - | 315 W/m² | - |
| 1787852055 | 26.67° C | 38% | 1023 hPa | 0 mm | - | 255 W/m² | - |
| 1787851755 | 27.22° C | 38% | 1023.1 hPa | 0 mm | - | 281 W/m² | - |
| 1787851449 | 27.22° C | 41% | 1022.9 hPa | 0 mm | - | 750 W/m² | - |
| 1787851144 | 27.78° C | 36% | 1023.1 hPa | 0 mm | - | 903 W/m² | - |
| 1787850840 | 27.78° C | 35% | 1023.3 hPa | 0 mm | - | 548 W/m² | - |
| 1787850535 | 27.22° C | 39% | 1022.9 hPa | 0 mm | - | 741 W/m² | - |
| 1787850231 | 27.78° C | 37% | 1023 hPa | 0 mm | - | 363 W/m² | - |
| 1787849930 | 27.22° C | 38% | 1022.9 hPa | 0 mm | - | 446 W/m² | - |
| 1787849625 | 26.11° C | 39% | 1023.1 hPa | 0 mm | - | 690 W/m² | - |
| 1787849325 | 25° C | 43% | 1023.1 hPa | 0 mm | - | 623 W/m² | - |
| 1787849025 | 25° C | 40% | 1022.9 hPa | 0 mm | - | 614 W/m² | - |
| 1787848725 | 24.44° C | 44% | 1022.8 hPa | 0 mm | - | 615 W/m² | - |
| 1787848420 | 24.44° C | 45% | 1023 hPa | 0 mm | - | 571 W/m² | - |
| 1787848119 | 24.44° C | 44% | 1022.9 hPa | 0 mm | - | 318 W/m² | - |
| 1787847814 | 24.44° C | 44% | 1022.9 hPa | 0 mm | - | 523 W/m² | - |
| 1787847509 | 23.89° C | 46% | 1022.9 hPa | 0 mm | - | 514 W/m² | - |
| 1787847205 | 23.33° C | 47% | 1022.9 hPa | 0 mm | - | 88 W/m² | - |
* Rain latest hour (hover to see other rain measurements)
** Current wind speed in m/s (hover to see current wind gust speed)